createdAt,value
2024-04-18T00:02:47.627Z,14.10
2024-04-18T00:08:05.885Z,14.20
2024-04-18T00:13:07.625Z,13.50
2024-04-18T00:18:29.216Z,21.30
2024-04-18T00:23:31.074Z,19.70
2024-04-18T00:28:50.571Z,18.60
2024-04-18T00:33:52.329Z,19.60
2024-04-18T00:39:03.024Z,16.70
2024-04-18T00:44:04.737Z,15.80
2024-04-18T00:49:07.129Z,19.90
2024-04-18T00:54:28.339Z,21.70
2024-04-18T00:59:33.610Z,18.60
2024-04-18T01:04:51.377Z,15.80
2024-04-18T01:10:13.001Z,12.00
2024-04-18T01:15:14.790Z,10.70
2024-04-18T01:20:19.279Z,21.00
2024-04-18T01:25:20.893Z,18.10
2024-04-18T01:30:22.562Z,19.10
2024-04-18T01:35:24.246Z,16.80
2024-04-18T01:40:26.032Z,13.50
2024-04-18T01:45:46.375Z,16.10
2024-04-18T01:50:48.076Z,21.70
2024-04-18T01:56:07.167Z,17.60
2024-04-18T02:01:25.460Z,18.40
2024-04-18T02:06:27.265Z,20.70
2024-04-18T02:11:29.232Z,12.00
2024-04-18T02:16:46.071Z,17.60
2024-04-18T02:22:00.153Z,27.20
2024-04-18T02:27:07.837Z,25.50
2024-04-18T02:32:09.483Z,23.40
2024-04-18T02:37:11.334Z,18.10
2024-04-18T02:42:13.102Z,15.10
2024-04-18T02:47:35.256Z,11.00
2024-04-18T02:52:39.887Z,16.60
2024-04-18T02:57:49.609Z,20.10
2024-04-18T03:02:51.410Z,24.50
2024-04-18T03:07:58.469Z,19.70
2024-04-18T03:13:18.401Z,17.80
2024-04-18T03:18:26.339Z,13.20
2024-04-18T03:23:40.420Z,22.50
2024-04-18T03:28:42.079Z,20.90
2024-04-18T03:33:43.932Z,19.00
2024-04-18T03:38:45.574Z,16.30
2024-04-18T03:43:47.348Z,12.50
2024-04-18T03:48:49.016Z,20.50
2024-04-18T03:53:50.734Z,21.50
2024-04-18T03:58:53.662Z,22.90
2024-04-18T04:09:14.018Z,16.10
2024-04-18T04:14:16.262Z,23.90
2024-04-18T04:19:30.080Z,24.80
2024-04-18T04:24:32.088Z,22.30
2024-04-18T04:29:53.739Z,21.00
2024-04-18T04:34:55.525Z,14.40
2024-04-18T04:39:57.305Z,22.20
2024-04-18T04:44:59.121Z,23.20
2024-04-18T04:50:04.955Z,22.00
2024-04-18T04:55:12.582Z,18.50
2024-04-18T05:00:14.980Z,14.20
2024-04-18T05:05:43.788Z,18.20
2024-04-18T05:15:47.947Z,15.50
2024-04-18T05:21:05.011Z,13.70
2024-04-18T05:26:33.647Z,18.80
2024-04-18T05:31:36.989Z,20.20
2024-04-18T05:36:40.769Z,22.00
2024-04-18T05:41:42.550Z,20.60
2024-04-18T05:47:04.568Z,17.40
2024-04-18T05:52:06.412Z,12.20
2024-04-18T05:57:08.574Z,16.90
2024-04-18T06:02:25.556Z,16.80
2024-04-18T06:07:27.367Z,15.40
2024-04-18T06:12:29.138Z,17.60
2024-04-18T06:17:30.980Z,17.80
2024-04-18T06:22:33.015Z,15.50
2024-04-18T06:27:53.153Z,16.10
2024-04-18T06:32:55.003Z,13.50
2024-04-18T06:37:57.107Z,17.10
2024-04-18T06:42:59.123Z,18.00
2024-04-18T06:48:01.075Z,17.30
2024-04-18T06:53:03.066Z,17.00
2024-04-18T06:58:05.306Z,16.20
2024-04-18T07:03:13.284Z,14.60
2024-04-18T07:08:27.257Z,17.50
2024-04-18T07:13:33.845Z,19.40
2024-04-18T07:18:56.662Z,17.30
2024-04-18T07:24:01.634Z,18.40
2024-04-18T07:29:16.190Z,16.00
2024-04-18T07:34:18.119Z,18.50
2024-04-18T07:39:20.767Z,17.00
2024-04-18T07:44:24.880Z,14.90
2024-04-18T07:49:27.044Z,13.20
2024-04-18T07:54:28.929Z,14.10
2024-04-18T07:59:31.046Z,17.50
2024-04-18T08:04:51.857Z,15.20
2024-04-18T08:09:59.979Z,16.80
2024-04-18T08:15:11.350Z,18.00
2024-04-18T08:20:16.400Z,15.80
2024-04-18T08:25:18.138Z,15.70
2024-04-18T08:30:20.578Z,14.30
2024-04-18T08:35:22.532Z,14.00
2024-04-18T08:40:29.485Z,14.10
2024-04-18T08:45:35.473Z,15.70
2024-04-18T08:50:41.930Z,11.90
2024-04-18T08:55:50.218Z,13.60
2024-04-18T09:05:54.595Z,14.40
2024-04-18T09:10:59.674Z,16.80
2024-04-18T09:16:01.617Z,12.60
2024-04-18T09:21:03.475Z,18.00
2024-04-18T09:26:05.180Z,12.10
2024-04-18T09:31:07.511Z,14.50
2024-04-18T09:36:09.924Z,12.10
2024-04-18T09:41:24.610Z,11.40
2024-04-18T09:46:29.615Z,13.10
2024-04-18T09:51:31.530Z,12.70
2024-04-18T09:56:35.316Z,9.40
2024-04-18T10:01:38.531Z,9.00
2024-04-18T10:06:44.609Z,9.10
2024-04-18T10:11:46.738Z,9.20
2024-04-18T10:27:08.812Z,7.50
2024-04-18T10:32:10.552Z,6.30
2024-04-18T10:37:12.523Z,7.70
2024-04-18T10:42:16.066Z,8.10
2024-04-18T10:47:22.439Z,6.70
2024-04-18T10:52:25.357Z,7.90
2024-04-18T10:57:27.306Z,8.80
2024-04-18T11:02:30.119Z,10.30
2024-04-18T11:07:33.423Z,8.50
2024-04-18T11:12:35.802Z,7.40
2024-04-18T11:22:40.502Z,8.70
2024-04-18T11:27:42.314Z,7.90
2024-04-18T11:32:44.347Z,5.60
2024-04-18T11:37:46.561Z,5.10
2024-04-18T11:42:48.224Z,4.60
2024-04-18T11:47:57.109Z,5.20
2024-04-18T11:52:59.045Z,7.40
2024-04-18T11:58:06.877Z,7.00
2024-04-18T12:03:11.575Z,7.50
2024-04-18T12:08:27.548Z,7.50
2024-04-18T12:13:29.360Z,6.70
2024-04-18T12:18:31.390Z,5.10
2024-04-18T12:23:43.904Z,4.50
2024-04-18T12:28:46.741Z,5.50
2024-04-18T12:33:48.575Z,5.40
2024-04-18T12:38:50.612Z,3.70
2024-04-18T12:43:52.368Z,3.60
2024-04-18T12:54:14.895Z,3.80
2024-04-18T12:59:22.948Z,3.80
2024-04-18T13:04:25.016Z,4.60
2024-04-18T13:09:27.041Z,3.60
2024-04-18T13:14:34.304Z,3.40
2024-04-18T13:19:36.072Z,3.10
2024-04-18T13:30:02.529Z,3.60
2024-04-18T13:35:08.565Z,4.80
2024-04-18T13:40:11.089Z,4.20
2024-04-18T13:45:33.970Z,4.90
2024-04-18T13:50:36.084Z,5.60
2024-04-18T13:55:37.880Z,6.40
2024-04-18T14:00:39.770Z,5.70
2024-04-18T14:06:00.687Z,4.90
2024-04-18T14:11:11.420Z,5.40
2024-04-18T14:16:52.108Z,5.50
2024-04-18T14:22:07.444Z,4.00
2024-04-18T14:27:09.564Z,4.90
2024-04-18T14:32:31.245Z,5.10
2024-04-18T14:37:39.178Z,5.00
2024-04-18T14:42:41.499Z,4.30
2024-04-18T14:47:43.500Z,5.10
2024-04-18T14:52:45.293Z,4.50
2024-04-18T14:58:05.502Z,4.80
2024-04-18T15:03:23.132Z,3.50
2024-04-18T15:13:27.586Z,3.60
2024-04-18T15:18:29.559Z,5.00
2024-04-18T15:23:51.232Z,2.90
2024-04-18T15:29:00.579Z,2.50
2024-04-18T15:34:22.497Z,2.60
2024-04-18T15:39:30.129Z,2.40
2024-04-18T15:50:00.346Z,3.00
2024-04-18T15:55:12.393Z,3.20
2024-04-18T16:00:21.304Z,3.90
2024-04-18T16:05:24.363Z,4.80
2024-04-18T16:10:41.638Z,5.20
2024-04-18T16:16:03.627Z,4.20
2024-04-18T16:21:12.025Z,3.40
2024-04-18T16:26:14.182Z,3.50
2024-04-18T16:31:16.109Z,3.50
2024-04-18T16:36:27.889Z,3.50
2024-04-18T16:41:42.978Z,3.80
2024-04-18T16:46:44.839Z,3.50
2024-04-18T16:51:49.562Z,3.30
2024-04-18T16:56:58.542Z,3.50
2024-04-18T17:02:19.561Z,3.20
2024-04-18T17:07:21.236Z,2.20
2024-04-18T17:12:55.373Z,4.10
2024-04-18T17:18:23.398Z,2.40
2024-04-18T17:23:31.725Z,2.50
2024-04-18T17:28:33.343Z,2.30
2024-04-18T17:33:38.096Z,2.30
2024-04-18T17:38:40.917Z,2.90
2024-04-18T17:44:02.908Z,2.90
2024-04-18T17:49:25.216Z,2.30
2024-04-18T17:54:27.148Z,2.30
2024-04-18T17:59:29.194Z,2.40
2024-04-18T18:04:30.925Z,2.90
2024-04-18T18:09:32.727Z,3.40
2024-04-18T18:14:34.539Z,2.90
2024-04-18T18:19:36.512Z,2.80
2024-04-18T18:24:40.386Z,3.90
2024-04-18T18:29:43.607Z,4.00
2024-04-18T18:34:46.795Z,5.80
2024-04-18T18:39:49.397Z,6.50
2024-04-18T18:44:51.276Z,5.90
2024-04-18T18:49:53.075Z,4.80
2024-04-18T18:54:55.879Z,4.80
2024-04-18T18:59:57.852Z,6.50
2024-04-18T19:04:59.678Z,8.00
2024-04-18T19:10:01.436Z,9.80
2024-04-18T19:15:03.642Z,10.90
2024-04-18T19:20:06.582Z,14.80
2024-04-18T19:25:08.516Z,13.50
2024-04-18T19:30:10.681Z,12.10
2024-04-18T19:35:14.809Z,11.10
2024-04-18T19:40:17.152Z,7.90
2024-04-18T19:45:37.924Z,7.30
2024-04-18T19:50:40.513Z,8.00
2024-04-18T19:56:00.471Z,6.70
2024-04-18T20:01:05.378Z,7.00
2024-04-18T20:06:09.477Z,9.70
2024-04-18T20:11:27.177Z,10.20
2024-04-18T20:16:28.910Z,10.70
2024-04-18T20:21:45.828Z,9.00
2024-04-18T20:26:47.594Z,9.10
2024-04-18T20:31:49.318Z,7.40
2024-04-18T20:36:51.368Z,9.70
2024-04-18T20:41:54.263Z,9.00
2024-04-18T20:51:57.834Z,7.60
2024-04-18T20:57:19.552Z,7.70
2024-04-18T21:02:23.412Z,7.40
2024-04-18T21:07:31.045Z,8.70
2024-04-18T21:12:33.327Z,6.90
2024-04-18T21:17:35.143Z,14.00
2024-04-18T21:22:36.917Z,12.60
2024-04-18T21:27:38.807Z,12.50
2024-04-18T21:32:40.651Z,11.10
2024-04-18T21:37:42.455Z,8.70
2024-04-18T21:42:44.283Z,9.40
2024-04-18T21:47:46.166Z,9.50
2024-04-18T21:52:48.194Z,12.40
2024-04-18T21:57:49.934Z,11.90
2024-04-18T22:02:51.960Z,9.80
2024-04-18T22:07:53.649Z,9.30
2024-04-18T22:12:56.182Z,7.40
2024-04-18T22:17:58.016Z,7.40
2024-04-18T22:22:59.910Z,7.20
2024-04-18T22:28:01.898Z,12.40
2024-04-18T22:33:03.843Z,11.70
2024-04-18T22:38:05.671Z,11.10
2024-04-18T22:43:07.355Z,9.10
2024-04-18T22:48:09.790Z,8.50
2024-04-18T22:53:12.086Z,7.50
2024-04-18T22:58:13.912Z,5.80
2024-04-18T23:03:35.668Z,9.20
2024-04-18T23:08:50.246Z,11.20
2024-04-18T23:13:51.896Z,11.00
2024-04-18T23:18:53.668Z,9.60
2024-04-18T23:23:55.705Z,8.60
2024-04-18T23:28:57.460Z,7.50
2024-04-18T23:33:59.446Z,7.20
2024-04-18T23:39:01.463Z,11.80
2024-04-18T23:44:08.046Z,11.00
2024-04-18T23:49:09.905Z,11.70
2024-04-18T23:54:11.950Z,10.60
2024-04-18T23:59:13.809Z,12.90
